createdAt,value
2024-01-31T00:00:40.201Z,9.443781
2024-01-31T00:01:40.216Z,9.443722
2024-01-31T00:02:40.201Z,9.443727
2024-01-31T00:03:40.160Z,9.443704
2024-01-31T00:04:40.224Z,9.443668
2024-01-31T00:05:40.172Z,9.443698
2024-01-31T00:06:40.114Z,9.443704
2024-01-31T00:07:40.144Z,9.443589
2024-01-31T00:08:40.116Z,9.443687
2024-01-31T00:09:40.082Z,9.443560
2024-01-31T00:10:40.189Z,9.443766
2024-01-31T00:11:40.107Z,9.443747
2024-01-31T00:12:40.099Z,9.443609
2024-01-31T00:13:40.097Z,9.443821
2024-01-31T00:14:40.069Z,9.443747
2024-01-31T00:15:40.101Z,9.443686
2024-01-31T00:16:40.085Z,9.443515
2024-01-31T00:17:40.055Z,9.444175
2024-01-31T00:18:40.084Z,9.443717
2024-01-31T00:19:40.185Z,9.443696
2024-01-31T00:20:40.013Z,9.443556
2024-01-31T00:21:40.060Z,9.443753
2024-01-31T00:22:40.139Z,9.443775
2024-01-31T00:23:39.990Z,9.443598
2024-01-31T00:24:40.003Z,9.443576
2024-01-31T00:25:40.075Z,9.443518
2024-01-31T00:26:40.007Z,9.443663
2024-01-31T00:27:39.988Z,9.443575
2024-01-31T00:28:40.087Z,9.443386
2024-01-31T00:29:40.051Z,9.443416
2024-01-31T00:32:50.734Z,9.443531
2024-01-31T00:33:50.881Z,9.443595
2024-01-31T00:34:50.694Z,9.443651
2024-01-31T00:35:50.633Z,9.443622
2024-01-31T00:36:50.603Z,9.443664
2024-01-31T00:37:50.677Z,9.443563
2024-01-31T00:38:50.614Z,9.443651
2024-01-31T00:39:50.637Z,9.443654
2024-01-31T00:40:50.624Z,9.443610
2024-01-31T00:41:50.570Z,9.443620
2024-01-31T00:42:50.600Z,9.443553
2024-01-31T00:43:50.554Z,9.443540
2024-01-31T00:44:50.569Z,9.443561
2024-01-31T00:45:50.547Z,9.443652
2024-01-31T00:46:50.598Z,9.443706
2024-01-31T00:47:50.583Z,9.443599
2024-01-31T00:48:50.593Z,9.443522
2024-01-31T00:49:50.585Z,9.443540
2024-01-31T00:50:50.511Z,9.443632
2024-01-31T00:51:50.538Z,9.443681
2024-01-31T00:52:50.497Z,9.443709
2024-01-31T00:53:50.637Z,9.443647
2024-01-31T00:54:51.141Z,9.443717
2024-01-31T00:55:50.526Z,9.443733
2024-01-31T00:56:59.285Z,9.443731
2024-01-31T00:58:25.676Z,9.443641
2024-01-31T00:58:50.690Z,9.443596
2024-01-31T01:00:31.918Z,9.443660
2024-01-31T01:00:50.860Z,9.443707
2024-01-31T01:01:51.406Z,9.443745
2024-01-31T01:02:50.462Z,9.443721
2024-01-31T01:03:50.550Z,9.443540
2024-01-31T01:04:50.481Z,9.443460
2024-01-31T01:05:50.476Z,9.443563
2024-01-31T01:06:51.263Z,9.443686
2024-01-31T01:07:50.435Z,9.443768
2024-01-31T01:08:50.547Z,9.443794
2024-01-31T01:09:50.408Z,9.443606
2024-01-31T01:10:50.398Z,9.443522
2024-01-31T01:11:50.395Z,9.443357
2024-01-31T01:12:50.373Z,9.443402
2024-01-31T01:13:50.414Z,9.443337
2024-01-31T01:14:51.772Z,9.443365
2024-01-31T01:15:50.400Z,9.443370
2024-01-31T01:16:50.391Z,9.443569
2024-01-31T01:17:50.420Z,9.443773
2024-01-31T01:18:50.388Z,9.443761
2024-01-31T01:19:50.529Z,9.443670
2024-01-31T01:20:50.350Z,9.443691
2024-01-31T01:21:50.292Z,9.443689
2024-01-31T01:22:50.324Z,9.443667
2024-01-31T01:23:52.755Z,9.443656
2024-01-31T01:24:51.381Z,9.443663
2024-01-31T01:25:50.354Z,9.443659
2024-01-31T01:26:50.302Z,9.443701
2024-01-31T01:27:50.304Z,9.443709
2024-01-31T01:28:50.322Z,9.443566
2024-01-31T01:29:50.338Z,9.443573
2024-01-31T01:30:50.778Z,9.443693
2024-01-31T01:31:50.293Z,9.443647
2024-01-31T01:32:50.422Z,9.443609
2024-01-31T01:33:50.293Z,9.443544
2024-01-31T01:34:50.309Z,9.443339
2024-01-31T01:35:50.261Z,9.443449
2024-01-31T01:36:50.282Z,9.443393
2024-01-31T01:37:50.345Z,9.443548
2024-01-31T01:38:50.232Z,9.443663
2024-01-31T01:39:50.221Z,9.443532
2024-01-31T01:40:50.295Z,9.443586
2024-01-31T01:41:50.191Z,9.443581
2024-01-31T01:42:50.256Z,9.443904
2024-01-31T01:43:50.247Z,9.443693
2024-01-31T01:44:50.212Z,9.443772
2024-01-31T01:45:50.190Z,9.443705
2024-01-31T01:46:50.191Z,9.443627
2024-01-31T01:47:50.388Z,9.443661
2024-01-31T01:48:50.252Z,9.443672
2024-01-31T01:49:50.255Z,9.443709
2024-01-31T01:50:50.152Z,9.443836
2024-01-31T01:51:50.157Z,9.443668
2024-01-31T01:52:50.152Z,9.443742
2024-01-31T01:53:52.069Z,9.443732
2024-01-31T01:54:51.137Z,9.443576
2024-01-31T01:55:50.245Z,9.443533
2024-01-31T01:56:50.158Z,9.443607
2024-01-31T01:57:50.096Z,9.443672
2024-01-31T01:58:50.438Z,9.443736
2024-01-31T01:59:50.090Z,9.443761
2024-01-31T02:00:50.110Z,9.443729
2024-01-31T02:01:50.109Z,9.443663
2024-01-31T02:02:50.082Z,9.443568
2024-01-31T02:04:25.187Z,9.443603
2024-01-31T02:04:50.522Z,9.443530
2024-01-31T02:05:50.175Z,9.443095
2024-01-31T02:06:50.156Z,9.443057
2024-01-31T02:07:50.099Z,9.443193
2024-01-31T02:08:50.093Z,9.443342
2024-01-31T02:09:50.021Z,9.443138
2024-01-31T02:10:50.139Z,9.443211
2024-01-31T02:11:50.032Z,9.443256
2024-01-31T02:12:49.988Z,9.443323
2024-01-31T02:13:50.004Z,9.443381
2024-01-31T02:14:49.993Z,9.443317
2024-01-31T02:15:49.972Z,9.443612
2024-01-31T02:16:50.023Z,9.443593
2024-01-31T02:17:50.056Z,9.443587
2024-01-31T02:18:50.006Z,9.443443
2024-01-31T02:19:50.055Z,9.443569
2024-01-31T02:20:49.924Z,9.443480
2024-01-31T02:21:50.006Z,9.443486
2024-01-31T02:22:49.952Z,9.443446
2024-01-31T02:23:49.920Z,9.443544
2024-01-31T02:24:49.935Z,9.443467
2024-01-31T02:25:49.959Z,9.443512
2024-01-31T02:26:49.917Z,9.443519
2024-01-31T02:27:49.958Z,9.443563
2024-01-31T02:28:49.940Z,9.443518
2024-01-31T02:29:49.886Z,9.443518
2024-01-31T02:30:49.897Z,9.443553
2024-01-31T03:15:52.663Z,9.443718
2024-01-31T03:16:52.582Z,9.443735
2024-01-31T03:17:52.582Z,9.443780
2024-01-31T03:18:52.647Z,9.443753
2024-01-31T03:19:52.686Z,9.443720
2024-01-31T03:20:52.537Z,9.443823
2024-01-31T03:21:52.564Z,9.443838
2024-01-31T03:22:52.520Z,9.443789
2024-01-31T03:23:52.549Z,9.443780
2024-01-31T03:24:52.475Z,9.443953
2024-01-31T03:25:52.497Z,9.443787
2024-01-31T03:26:52.503Z,9.443660
2024-01-31T03:27:52.496Z,9.443645
2024-01-31T03:28:52.463Z,9.443706
2024-01-31T03:29:52.464Z,9.443730
2024-01-31T03:30:52.574Z,9.443686
2024-01-31T03:31:53.479Z,9.443691
2024-01-31T03:32:52.543Z,9.443885
2024-01-31T03:33:52.555Z,9.443922
2024-01-31T03:34:52.476Z,9.443791
2024-01-31T03:35:52.439Z,9.443815
2024-01-31T03:36:52.446Z,9.443794
2024-01-31T03:37:52.433Z,9.443754
2024-01-31T03:38:52.399Z,9.443733
2024-01-31T03:39:52.396Z,9.443693
2024-01-31T03:40:52.589Z,9.443786
2024-01-31T03:41:52.443Z,9.443790
2024-01-31T03:42:52.402Z,9.443792
2024-01-31T03:43:52.367Z,9.443764
2024-01-31T03:44:52.381Z,9.443829
2024-01-31T03:45:52.362Z,9.443811
2024-01-31T03:46:52.386Z,9.443752
2024-01-31T03:47:52.407Z,9.443752
2024-01-31T03:48:52.406Z,9.443742
2024-01-31T03:49:52.642Z,9.443838
2024-01-31T03:50:52.361Z,9.443759
2024-01-31T03:51:52.311Z,9.443746
2024-01-31T03:52:53.400Z,9.443745
2024-01-31T03:53:52.322Z,9.443727
2024-01-31T03:54:52.352Z,9.443772
2024-01-31T03:55:52.309Z,9.443739
2024-01-31T03:56:52.278Z,9.443689
2024-01-31T03:57:52.322Z,9.443554
2024-01-31T03:58:52.294Z,9.443584
2024-01-31T03:59:52.305Z,9.443527
2024-01-31T04:00:52.323Z,9.443640
2024-01-31T04:01:52.415Z,9.443659
2024-01-31T04:02:52.261Z,9.443653
2024-01-31T04:03:52.262Z,9.443666
2024-01-31T04:04:52.403Z,9.443616
2024-01-31T04:05:52.280Z,9.443633
2024-01-31T04:06:52.226Z,9.443747
2024-01-31T04:07:52.318Z,9.443772
2024-01-31T04:08:52.250Z,9.443718
2024-01-31T04:09:52.211Z,9.443681
2024-01-31T04:10:52.299Z,9.443334
2024-01-31T04:11:52.257Z,9.443250
2024-01-31T04:12:52.244Z,9.443301
2024-01-31T04:13:52.196Z,9.443252
2024-01-31T04:14:52.233Z,9.443248
2024-01-31T04:15:53.042Z,9.443482
2024-01-31T04:16:52.190Z,9.443604
2024-01-31T04:17:52.295Z,9.443541
2024-01-31T04:18:53.232Z,9.443572
2024-01-31T04:19:52.174Z,9.443538
2024-01-31T04:20:52.195Z,9.443520
2024-01-31T04:21:52.188Z,9.443591
2024-01-31T04:22:52.183Z,9.443732
2024-01-31T04:23:52.186Z,9.443622
2024-01-31T04:24:52.153Z,9.443607
2024-01-31T04:25:52.151Z,9.443604
2024-01-31T04:26:52.099Z,9.443570
2024-01-31T04:27:52.144Z,9.443463
2024-01-31T04:28:52.098Z,9.443441
2024-01-31T04:29:52.088Z,9.443452
2024-01-31T04:30:52.120Z,9.443514
2024-01-31T04:31:52.151Z,9.443536
2024-01-31T04:32:53.191Z,9.443547
2024-01-31T04:33:52.110Z,9.443552
2024-01-31T04:34:52.199Z,9.443470
2024-01-31T04:35:52.169Z,9.443490
2024-01-31T04:37:27.161Z,9.443550
2024-01-31T04:37:52.253Z,9.443535
2024-01-31T04:38:52.213Z,9.443626
2024-01-31T04:39:52.096Z,9.443553
2024-01-31T04:40:52.095Z,9.443591
2024-01-31T04:41:52.050Z,9.443549
2024-01-31T04:42:54.254Z,9.443635
2024-01-31T04:43:53.065Z,9.443682
2024-01-31T04:44:52.009Z,9.443552
2024-01-31T04:45:52.591Z,9.443510
2024-01-31T04:46:52.028Z,9.443664
2024-01-31T04:47:51.986Z,9.443704
2024-01-31T04:48:52.154Z,9.443553
2024-01-31T04:49:52.267Z,9.443568
2024-01-31T04:50:52.011Z,9.443543
2024-01-31T04:51:52.654Z,9.443557
2024-01-31T04:52:52.098Z,9.443587
2024-01-31T04:53:52.038Z,9.443562
2024-01-31T04:54:51.970Z,9.443561
2024-01-31T04:55:51.987Z,9.443542
2024-01-31T04:56:51.941Z,9.443559
2024-01-31T04:57:51.935Z,9.443351
2024-01-31T04:58:51.930Z,9.443413
2024-01-31T04:59:53.540Z,9.443524
2024-01-31T05:00:52.679Z,9.443579
2024-01-31T05:01:52.032Z,9.443555
2024-01-31T05:02:52.657Z,9.443517
2024-01-31T05:03:52.013Z,9.443497
2024-01-31T05:04:52.002Z,9.443566
2024-01-31T05:05:52.081Z,9.443600
2024-01-31T05:06:51.872Z,9.443655
2024-01-31T05:07:52.598Z,9.443590
2024-01-31T05:08:51.867Z,9.443587
2024-01-31T05:09:51.865Z,9.443655
2024-01-31T05:10:51.881Z,9.443647
2024-01-31T05:11:52.847Z,9.443660
2024-01-31T05:12:51.944Z,9.443563
2024-01-31T05:13:52.311Z,9.443522
2024-01-31T05:14:52.872Z,9.443543
2024-01-31T05:15:51.875Z,9.443480
2024-01-31T05:16:51.874Z,9.443544
2024-01-31T05:17:51.863Z,9.443629
2024-01-31T05:18:51.861Z,9.443627
2024-01-31T05:19:52.906Z,9.443643
2024-01-31T05:20:52.274Z,9.443629
2024-01-31T05:21:51.943Z,9.443628
2024-01-31T05:22:51.967Z,9.443671
2024-01-31T05:23:52.704Z,9.443548
2024-01-31T05:24:51.970Z,9.443596
2024-01-31T05:25:51.917Z,9.443624
2024-01-31T05:26:52.047Z,9.443577
2024-01-31T05:27:52.795Z,9.443620
2024-01-31T05:28:51.889Z,9.443618
2024-01-31T05:29:51.927Z,9.443602
2024-01-31T05:30:51.883Z,9.443530
2024-01-31T05:31:52.895Z,9.443691
2024-01-31T05:32:53.896Z,9.443719
2024-01-31T05:33:53.045Z,9.443694
2024-01-31T05:34:51.854Z,9.443639
2024-01-31T05:35:51.735Z,9.443658
2024-01-31T05:36:51.832Z,9.443624
2024-01-31T05:37:52.784Z,9.443665
2024-01-31T05:38:51.752Z,9.443715
2024-01-31T05:39:51.748Z,9.443664
2024-01-31T05:40:51.822Z,9.443673
2024-01-31T05:41:51.758Z,9.443623
2024-01-31T05:42:53.829Z,9.443461
2024-01-31T05:43:53.550Z,9.443686
2024-01-31T05:44:51.660Z,9.443679
2024-01-31T05:45:51.666Z,9.443570
2024-01-31T05:46:52.582Z,9.443656
2024-01-31T05:47:51.707Z,9.443721
2024-01-31T05:48:51.667Z,9.443730
2024-01-31T05:49:51.685Z,9.443758
2024-01-31T05:50:51.646Z,9.443772
2024-01-31T05:51:52.793Z,9.443720
2024-01-31T05:52:51.661Z,9.443589
2024-01-31T05:53:51.604Z,9.443600
2024-01-31T05:54:51.579Z,9.443630
2024-01-31T05:56:24.440Z,9.443504
2024-01-31T05:56:54.253Z,9.443590
2024-01-31T05:57:52.710Z,9.443568
2024-01-31T05:58:51.594Z,9.443575
2024-01-31T05:59:51.671Z,9.443573
2024-01-31T06:00:51.717Z,9.443571
2024-01-31T06:01:51.587Z,9.443639
2024-01-31T06:02:54.259Z,9.443704
2024-01-31T06:03:52.566Z,9.443721
2024-01-31T06:04:51.666Z,9.443737
2024-01-31T06:05:51.555Z,9.443717
2024-01-31T06:06:51.565Z,9.443669
2024-01-31T06:07:51.556Z,9.443686
2024-01-31T06:08:51.498Z,9.443757
2024-01-31T06:09:51.502Z,9.443850
2024-01-31T06:10:51.595Z,9.443920
2024-01-31T06:11:51.502Z,9.443829
2024-01-31T06:12:51.542Z,9.443888
2024-01-31T06:13:51.536Z,9.443815
2024-01-31T06:14:51.542Z,9.443853
2024-01-31T06:15:51.506Z,9.443802
2024-01-31T06:16:51.529Z,9.443835
2024-01-31T06:17:51.637Z,9.443831
2024-01-31T06:18:51.456Z,9.443796
2024-01-31T06:19:51.674Z,9.443695
2024-01-31T06:20:51.557Z,9.443744
2024-01-31T06:21:51.462Z,9.443744
2024-01-31T06:22:51.493Z,9.443806
2024-01-31T06:23:51.424Z,9.443772
2024-01-31T06:24:51.420Z,9.443804
2024-01-31T06:25:51.411Z,9.443775
2024-01-31T06:26:51.384Z,9.443862
2024-01-31T06:27:51.398Z,9.443853
2024-01-31T06:28:51.734Z,9.443833
2024-01-31T10:00:56.031Z,9.443609
2024-01-31T10:01:55.750Z,9.443742
2024-01-31T10:02:54.734Z,9.443733
2024-01-31T10:38:50.035Z,9.443650
2024-01-31T13:39:36.544Z,9.443696
2024-01-31T13:40:39.510Z,9.443760
2024-01-31T13:54:21.437Z,9.443690
2024-01-31T17:13:49.133Z,9.443605
2024-01-31T18:31:25.127Z,9.443716
2024-01-31T18:32:26.210Z,9.443630
2024-01-31T18:33:24.240Z,9.443745
2024-01-31T18:34:24.502Z,9.443673
2024-01-31T18:35:25.292Z,9.443810
2024-01-31T18:36:24.586Z,9.443604
2024-01-31T18:37:25.290Z,9.443689
2024-01-31T18:38:25.967Z,9.443735
2024-01-31T18:39:25.473Z,9.443653
2024-01-31T18:40:24.954Z,9.443700
2024-01-31T18:41:25.141Z,9.443635
2024-01-31T18:42:25.030Z,9.443567
2024-01-31T18:43:25.920Z,9.443672
2024-01-31T18:44:24.127Z,9.443681
2024-01-31T18:45:24.473Z,9.443661
2024-01-31T18:46:25.512Z,9.443649
2024-01-31T18:47:23.926Z,9.443634
2024-01-31T18:48:31.367Z,9.443658
2024-01-31T18:49:24.519Z,9.443725
2024-01-31T19:31:17.078Z,9.443585
2024-01-31T19:32:16.371Z,9.443634
2024-01-31T19:33:16.163Z,9.443599
2024-01-31T19:34:16.008Z,9.443613
2024-01-31T19:35:17.194Z,9.443616
2024-01-31T19:36:18.807Z,9.443534
2024-01-31T19:37:17.972Z,9.443551
2024-01-31T19:38:17.015Z,9.443635
2024-01-31T19:39:15.860Z,9.443593
2024-01-31T19:40:18.233Z,9.443601
2024-01-31T19:41:17.007Z,9.443588
2024-01-31T19:42:15.817Z,9.443651
2024-01-31T19:43:18.293Z,9.443716
2024-01-31T19:44:15.845Z,9.443739
2024-01-31T19:45:16.054Z,9.443717
2024-01-31T19:46:15.807Z,9.443755
2024-01-31T19:47:15.933Z,9.443769
2024-01-31T19:48:17.203Z,9.443731
2024-01-31T19:49:15.967Z,9.443760
2024-01-31T20:22:37.988Z,9.443639
2024-01-31T20:24:16.606Z,9.443706
2024-01-31T20:25:14.921Z,9.443715
2024-01-31T20:25:37.513Z,9.443653
2024-01-31T20:26:37.317Z,9.443659
2024-01-31T20:27:37.351Z,9.443753
2024-01-31T20:28:37.193Z,9.443795
2024-01-31T20:35:27.886Z,9.443780
2024-01-31T20:36:27.542Z,9.443774
2024-01-31T22:10:27.214Z,9.443603
2024-01-31T22:11:27.095Z,9.443643
2024-01-31T22:12:26.994Z,9.443456
2024-01-31T22:13:27.138Z,9.443509
2024-01-31T22:14:28.316Z,9.443493
2024-01-31T22:15:27.142Z,9.443419
2024-01-31T22:40:52.136Z,9.443575
2024-01-31T22:41:49.994Z,9.443549
2024-01-31T22:42:50.086Z,9.443398
2024-01-31T22:43:50.224Z,9.443669
2024-01-31T22:44:50.221Z,9.443687
2024-01-31T22:45:50.023Z,9.443757
2024-01-31T22:46:50.010Z,9.443538
2024-01-31T22:47:49.986Z,9.443490
2024-01-31T22:48:50.072Z,9.443596
2024-01-31T22:49:50.107Z,9.443684
2024-01-31T22:50:49.990Z,9.443779
2024-01-31T22:51:50.135Z,9.443766
2024-01-31T22:52:50.316Z,9.443655
2024-01-31T22:53:49.950Z,9.443555
2024-01-31T22:54:57.242Z,9.443521
2024-01-31T22:55:52.036Z,9.443732
2024-01-31T22:56:49.901Z,9.443445
2024-01-31T22:57:49.965Z,9.443646
2024-01-31T22:58:49.816Z,9.443588
2024-01-31T22:59:50.234Z,9.443596
2024-01-31T23:00:49.958Z,9.443701
2024-01-31T23:01:49.844Z,9.443704
2024-01-31T23:02:49.943Z,9.443540
2024-01-31T23:03:49.817Z,9.443543
2024-01-31T23:04:49.777Z,9.443493
2024-01-31T23:05:49.815Z,9.443342
2024-01-31T23:06:50.170Z,9.443592
2024-01-31T23:07:50.787Z,9.443736
2024-01-31T23:08:49.761Z,9.443751
2024-01-31T23:09:49.779Z,9.443769
2024-01-31T23:10:49.859Z,9.443811
2024-01-31T23:11:49.822Z,9.443794
2024-01-31T23:12:49.854Z,9.443808
2024-01-31T23:13:49.818Z,9.443750
2024-01-31T23:14:49.916Z,9.443719
2024-01-31T23:15:49.759Z,9.443690
2024-01-31T23:16:49.827Z,9.443685
2024-01-31T23:17:49.927Z,9.443681
2024-01-31T23:18:49.841Z,9.443690
2024-01-31T23:19:50.362Z,9.443796
2024-01-31T23:20:50.298Z,9.443793
2024-01-31T23:21:50.025Z,9.443714
2024-01-31T23:22:50.123Z,9.443686
2024-01-31T23:23:49.700Z,9.443584
2024-01-31T23:24:49.998Z,9.443675
2024-01-31T23:25:49.790Z,9.443663
2024-01-31T23:26:49.663Z,9.443744
2024-01-31T23:27:49.700Z,9.443788
2024-01-31T23:28:50.006Z,9.443757
2024-01-31T23:29:49.679Z,9.443827
2024-01-31T23:43:50.760Z,9.443524
2024-01-31T23:44:50.945Z,9.443786
2024-01-31T23:45:50.753Z,9.443727
2024-01-31T23:46:50.588Z,9.443714
2024-01-31T23:47:51.036Z,9.443769
2024-01-31T23:48:50.747Z,9.443779
2024-01-31T23:49:50.736Z,9.443809
2024-01-31T23:55:47.720Z,9.443726
2024-01-31T23:56:47.845Z,9.444110
2024-01-31T23:57:47.680Z,9.444052
2024-01-31T23:58:47.646Z,9.444130
2024-01-31T23:59:47.760Z,9.444075
